TAF Text Data
IDs:
Format:
Raw Decoded Include METAR

Data at: 1329 UTC 21 Oct 2018

KJAX 211256Z 34010KT 10SM FEW150 FEW250 17/11 A3011 RMK AO2 SLP198 T01670106

KJAX 211246Z 2113/2212 34008KT P6SM SKC
  FM211500 02012G18KT P6SM SKC
  FM212200 03007KT P6SM SKC
  FM220200 02003KT P6SM SKC


KCRG 211253Z 36013G18KT 10SM CLR 17/09 A3011 RMK AO2 SLP196 T01670094

KCRG 211246Z 2113/2212 35010KT P6SM SKC
  FM211500 03012G20KT P6SM SKC
  FM212300 04007KT P6SM SKC
  FM220200 02004KT P6SM SKC


KVQQ 211250Z 36012KT 10SM CLR 17/10 A3012

KVQQ 211120Z 2112/2212 34007G15KT P6SM FEW250
  FM211500 02009G16KT P6SM SKC
  FM212200 03007KT P6SM SKC
  FM220200 02003KT P6SM SKC


KGNV 211253Z 36009G16KT 10SM CLR 18/11 A3014 RMK AO2 SLP204 T01780111

KGNV 211120Z 2112/2212 35007G15KT P6SM FEW250
  FM211500 02010KT P6SM SKC
  FM212300 05006KT P6SM SKC
  FM220200 02003KT P6SM SKC


KSGJ 211256Z 33012KT 10SM CLR 17/09 A3011 RMK AO2 SLP194 T01720094

KSGJ 211309Z 2113/2212 35012KT P6SM FEW250
  FM211500 02015G23KT P6SM SKC
  FM212300 03011KT P6SM SKC


KSSI 211253Z AUTO 10SM CLR 16/09 A3011 RMK AO2 SLP198 T01610094

KSSI 211120Z 2112/2212 34014G22KT P6SM FEW250
  FM211500 02015G22KT P6SM SKC
  FM212300 03009KT P6SM SKC
  FM220100 03005KT P6SM SKC